sensor_id;sensor_type;location;lat;lon;timestamp;P1;durP1;ratioP1;P2;durP2;ratioP2
26824;SDS011;14402;48.178;11.566;2022-07-23T00:00:21;5.5;;;5.0;;
26824;SDS011;14402;48.178;11.566;2022-07-23T00:00:51;5.3;;;4.8;;
26824;SDS011;14402;48.178;11.566;2022-07-23T00:01:21;5.1;;;4.6;;
26824;SDS011;14402;48.178;11.566;2022-07-23T00:01:51;5.1;;;4.6;;
26824;SDS011;14402;48.178;11.566;2022-07-23T00:02:21;5.1;;;4.6;;
26824;SDS011;14402;48.178;11.566;2022-07-23T00:02:51;5.1;;;4.6;;
26824;SDS011;14402;48.178;11.566;2022-07-23T00:03:21;5.2;;;4.7;;
26824;SDS011;14402;48.178;11.566;2022-07-23T00:03:51;5.2;;;4.7;;
26824;SDS011;14402;48.178;11.566;2022-07-23T00:04:21;5.2;;;4.7;;
26824;SDS011;14402;48.178;11.566;2022-07-23T00:04:51;5.3;;;4.8;;
26824;SDS011;14402;48.178;11.566;2022-07-23T00:05:21;5.4;;;4.9;;
26824;SDS011;14402;48.178;11.566;2022-07-23T00:05:51;5.4;;;4.9;;
26824;SDS011;14402;48.178;11.566;2022-07-23T00:06:22;5.4;;;4.9;;
26824;SDS011;14402;48.178;11.566;2022-07-23T00:06:51;5.4;;;4.9;;
26824;SDS011;14402;48.178;11.566;2022-07-23T00:07:22;5.5;;;5.0;;
26824;SDS011;14402;48.178;11.566;2022-07-23T00:07:52;5.5;;;5.0;;
26824;SDS011;14402;48.178;11.566;2022-07-23T00:08:22;5.5;;;5.0;;
26824;SDS011;14402;48.178;11.566;2022-07-23T00:08:52;5.3;;;4.8;;
26824;SDS011;14402;48.178;11.566;2022-07-23T00:09:22;5.2;;;4.7;;
26824;SDS011;14402;48.178;11.566;2022-07-23T00:09:52;5.2;;;4.7;;
26824;SDS011;14402;48.178;11.566;2022-07-23T00:10:22;5.2;;;4.7;;
26824;SDS011;14402;48.178;11.566;2022-07-23T00:10:52;5.2;;;4.6;;
26824;SDS011;14402;48.178;11.566;2022-07-23T00:11:22;5.3;;;4.5;;
26824;SDS011;14402;48.178;11.566;2022-07-23T00:11:52;5.3;;;4.5;;
26824;SDS011;14402;48.178;11.566;2022-07-23T00:12:22;5.3;;;4.5;;
26824;SDS011;14402;48.178;11.566;2022-07-23T00:12:52;5.2;;;4.6;;
26824;SDS011;14402;48.178;11.566;2022-07-23T00:13:22;5.1;;;4.6;;
26824;SDS011;14402;48.178;11.566;2022-07-23T00:13:52;5.1;;;4.6;;
26824;SDS011;14402;48.178;11.566;2022-07-23T00:14:23;5.1;;;4.6;;
26824;SDS011;14402;48.178;11.566;2022-07-23T00:14:53;5.1;;;4.6;;
26824;SDS011;14402;48.178;11.566;2022-07-23T00:15:23;5.1;;;4.7;;
26824;SDS011;14402;48.178;11.566;2022-07-23T00:15:53;5.1;;;4.7;;
26824;SDS011;14402;48.178;11.566;2022-07-23T00:16:23;5.1;;;4.7;;
26824;SDS011;14402;48.178;11.566;2022-07-23T00:16:53;7.9;;;4.6;;
26824;SDS011;14402;48.178;11.566;2022-07-23T00:17:24;10.7;;;4.6;;
26824;SDS011;14402;48.178;11.566;2022-07-23T00:17:53;10.7;;;4.6;;
26824;SDS011;14402;48.178;11.566;2022-07-23T00:18:23;10.7;;;4.6;;
26824;SDS011;14402;48.178;11.566;2022-07-23T00:18:53;8.5;;;4.8;;
26824;SDS011;14402;48.178;11.566;2022-07-23T00:19:23;6.3;;;5.1;;
26824;SDS011;14402;48.178;11.566;2022-07-23T00:19:53;6.3;;;5.1;;
26824;SDS011;14402;48.178;11.566;2022-07-23T00:20:24;6.3;;;5.1;;
26824;SDS011;14402;48.178;11.566;2022-07-23T00:20:53;5.7;;;4.8;;
26824;SDS011;14402;48.178;11.566;2022-07-23T00:21:24;5.1;;;4.6;;
26824;SDS011;14402;48.178;11.566;2022-07-23T00:21:54;5.1;;;4.6;;
26824;SDS011;14402;48.178;11.566;2022-07-23T00:22:24;5.1;;;4.6;;
26824;SDS011;14402;48.178;11.566;2022-07-23T00:22:54;5.6;;;4.7;;
26824;SDS011;14402;48.178;11.566;2022-07-23T00:23:24;6.2;;;4.8;;
26824;SDS011;14402;48.178;11.566;2022-07-23T00:23:54;6.2;;;4.8;;
26824;SDS011;14402;48.178;11.566;2022-07-23T00:24:24;6.2;;;4.8;;
26824;SDS011;14402;48.178;11.566;2022-07-23T00:24:54;5.3;;;4.5;;
26824;SDS011;14402;48.178;11.566;2022-07-23T00:25:24;4.5;;;4.2;;
26824;SDS011;14402;48.178;11.566;2022-07-23T00:25:54;4.5;;;4.2;;
26824;SDS011;14402;48.178;11.566;2022-07-23T00:26:24;4.5;;;4.2;;
26824;SDS011;14402;48.178;11.566;2022-07-23T00:26:54;4.7;;;4.2;;
26824;SDS011;14402;48.178;11.566;2022-07-23T00:27:24;4.9;;;4.3;;
26824;SDS011;14402;48.178;11.566;2022-07-23T00:27:54;4.9;;;4.3;;
26824;SDS011;14402;48.178;11.566;2022-07-23T00:28:25;4.9;;;4.3;;
26824;SDS011;14402;48.178;11.566;2022-07-23T00:28:55;4.7;;;4.2;;
26824;SDS011;14402;48.178;11.566;2022-07-23T00:29:25;4.5;;;4.2;;
26824;SDS011;14402;48.178;11.566;2022-07-23T00:29:55;4.5;;;4.2;;
26824;SDS011;14402;48.178;11.566;2022-07-23T00:30:25;4.5;;;4.2;;
26824;SDS011;14402;48.178;11.566;2022-07-23T00:30:55;4.8;;;4.4;;
26824;SDS011;14402;48.178;11.566;2022-07-23T00:31:25;5.2;;;4.6;;
26824;SDS011;14402;48.178;11.566;2022-07-23T00:31:55;5.2;;;4.6;;
26824;SDS011;14402;48.178;11.566;2022-07-23T00:32:25;5.2;;;4.6;;
26824;SDS011;14402;48.178;11.566;2022-07-23T00:32:56;4.9;;;4.4;;
26824;SDS011;14402;48.178;11.566;2022-07-23T00:33:25;4.6;;;4.2;;
26824;SDS011;14402;48.178;11.566;2022-07-23T00:33:56;4.6;;;4.2;;
26824;SDS011;14402;48.178;11.566;2022-07-23T00:34:25;4.6;;;4.2;;
26824;SDS011;14402;48.178;11.566;2022-07-23T00:34:55;4.9;;;4.3;;
26824;SDS011;14402;48.178;11.566;2022-07-23T00:35:27;5.3;;;4.4;;
26824;SDS011;14402;48.178;11.566;2022-07-23T00:35:56;5.3;;;4.4;;
26824;SDS011;14402;48.178;11.566;2022-07-23T00:36:26;5.3;;;4.4;;
26824;SDS011;14402;48.178;11.566;2022-07-23T00:36:56;5.0;;;4.4;;
26824;SDS011;14402;48.178;11.566;2022-07-23T00:37:26;4.7;;;4.3;;
26824;SDS011;14402;48.178;11.566;2022-07-23T00:37:56;4.7;;;4.3;;
26824;SDS011;14402;48.178;11.566;2022-07-23T00:38:26;4.7;;;4.3;;
26824;SDS011;14402;48.178;11.566;2022-07-23T00:38:56;5.3;;;4.4;;
26824;SDS011;14402;48.178;11.566;2022-07-23T00:39:26;5.9;;;4.6;;
26824;SDS011;14402;48.178;11.566;2022-07-23T00:39:56;5.9;;;4.6;;
26824;SDS011;14402;48.178;11.566;2022-07-23T00:40:26;5.9;;;4.6;;
26824;SDS011;14402;48.178;11.566;2022-07-23T00:40:56;5.2;;;4.3;;
26824;SDS011;14402;48.178;11.566;2022-07-23T00:41:26;4.4;;;4.0;;
26824;SDS011;14402;48.178;11.566;2022-07-23T00:41:56;4.4;;;4.0;;
26824;SDS011;14402;48.178;11.566;2022-07-23T00:42:26;4.4;;;4.0;;
26824;SDS011;14402;48.178;11.566;2022-07-23T00:42:57;4.6;;;4.1;;
26824;SDS011;14402;48.178;11.566;2022-07-23T00:43:27;4.7;;;4.2;;
26824;SDS011;14402;48.178;11.566;2022-07-23T00:44:13;4.7;;;4.2;;
26824;SDS011;14402;48.178;11.566;2022-07-23T00:44:27;4.7;;;4.2;;
26824;SDS011;14402;48.178;11.566;2022-07-23T00:44:57;4.8;;;4.3;;
26824;SDS011;14402;48.178;11.566;2022-07-23T00:45:27;4.8;;;4.4;;
26824;SDS011;14402;48.178;11.566;2022-07-23T00:45:57;4.8;;;4.4;;
26824;SDS011;14402;48.178;11.566;2022-07-23T00:46:27;4.8;;;4.4;;
26824;SDS011;14402;48.178;11.566;2022-07-23T00:46:57;4.9;;;4.4;;
26824;SDS011;14402;48.178;11.566;2022-07-23T00:47:27;5.0;;;4.5;;
26824;SDS011;14402;48.178;11.566;2022-07-23T00:47:57;5.0;;;4.5;;
26824;SDS011;14402;48.178;11.566;2022-07-23T00:48:27;5.0;;;4.5;;
26824;SDS011;14402;48.178;11.566;2022-07-23T00:48:57;5.2;;;4.5;;
26824;SDS011;14402;48.178;11.566;2022-07-23T00:49:28;5.3;;;4.5;;
26824;SDS011;14402;48.178;11.566;2022-07-23T00:49:58;5.3;;;4.5;;
26824;SDS011;14402;48.178;11.566;2022-07-23T00:50:28;5.3;;;4.5;;
26824;SDS011;14402;48.178;11.566;2022-07-23T00:50:58;5.4;;;4.4;;
26824;SDS011;14402;48.178;11.566;2022-07-23T00:51:28;5.4;;;4.4;;
26824;SDS011;14402;48.178;11.566;2022-07-23T00:51:58;5.4;;;4.4;;
26824;SDS011;14402;48.178;11.566;2022-07-23T00:52:28;5.4;;;4.4;;
26824;SDS011;14402;48.178;11.566;2022-07-23T00:52:58;5.1;;;4.4;;
26824;SDS011;14402;48.178;11.566;2022-07-23T00:53:28;4.8;;;4.4;;
26824;SDS011;14402;48.178;11.566;2022-07-23T00:53:58;4.8;;;4.4;;
26824;SDS011;14402;48.178;11.566;2022-07-23T00:54:28;4.8;;;4.4;;
26824;SDS011;14402;48.178;11.566;2022-07-23T00:54:58;4.9;;;4.4;;
26824;SDS011;14402;48.178;11.566;2022-07-23T00:55:28;4.9;;;4.5;;
26824;SDS011;14402;48.178;11.566;2022-07-23T00:55:58;4.9;;;4.5;;
26824;SDS011;14402;48.178;11.566;2022-07-23T00:56:29;4.9;;;4.5;;
26824;SDS011;14402;48.178;11.566;2022-07-23T00:56:58;4.8;;;4.3;;
26824;SDS011;14402;48.178;11.566;2022-07-23T00:57:29;4.6;;;4.2;;
26824;SDS011;14402;48.178;11.566;2022-07-23T00:57:59;4.6;;;4.2;;
26824;SDS011;14402;48.178;11.566;2022-07-23T00:58:29;4.6;;;4.2;;
26824;SDS011;14402;48.178;11.566;2022-07-23T00:58:59;4.6;;;4.2;;
26824;SDS011;14402;48.178;11.566;2022-07-23T00:59:29;4.6;;;4.2;;
26824;SDS011;14402;48.178;11.566;2022-07-23T00:59:59;4.6;;;4.2;;
26824;SDS011;14402;48.178;11.566;2022-07-23T01:00:29;4.6;;;4.2;;
26824;SDS011;14402;48.178;11.566;2022-07-23T01:00:59;4.6;;;4.2;;
26824;SDS011;14402;48.178;11.566;2022-07-23T01:01:29;4.7;;;4.3;;
26824;SDS011;14402;48.178;11.566;2022-07-23T01:01:59;4.7;;;4.3;;
26824;SDS011;14402;48.178;11.566;2022-07-23T01:02:29;4.7;;;4.3;;
26824;SDS011;14402;48.178;11.566;2022-07-23T01:02:59;4.8;;;4.4;;
26824;SDS011;14402;48.178;11.566;2022-07-23T01:03:29;5.0;;;4.5;;
26824;SDS011;14402;48.178;11.566;2022-07-23T01:04:00;5.0;;;4.5;;
26824;SDS011;14402;48.178;11.566;2022-07-23T01:04:30;5.0;;;4.5;;
26824;SDS011;14402;48.178;11.566;2022-07-23T01:05:00;4.8;;;4.3;;
26824;SDS011;14402;48.178;11.566;2022-07-23T01:05:30;4.7;;;4.2;;
26824;SDS011;14402;48.178;11.566;2022-07-23T01:06:00;4.7;;;4.2;;
26824;SDS011;14402;48.178;11.566;2022-07-23T01:06:30;4.7;;;4.2;;
26824;SDS011;14402;48.178;11.566;2022-07-23T01:07:00;4.7;;;4.2;;
26824;SDS011;14402;48.178;11.566;2022-07-23T01:07:30;4.7;;;4.2;;
26824;SDS011;14402;48.178;11.566;2022-07-23T01:08:00;4.7;;;4.2;;
26824;SDS011;14402;48.178;11.566;2022-07-23T01:08:30;4.7;;;4.2;;
26824;SDS011;14402;48.178;11.566;2022-07-23T01:09:00;4.8;;;4.3;;
26824;SDS011;14402;48.178;11.566;2022-07-23T01:09:30;4.9;;;4.5;;
26824;SDS011;14402;48.178;11.566;2022-07-23T01:10:00;4.9;;;4.5;;
26824;SDS011;14402;48.178;11.566;2022-07-23T01:10:30;4.9;;;4.5;;
26824;SDS011;14402;48.178;11.566;2022-07-23T01:11:00;4.9;;;4.5;;
26824;SDS011;14402;48.178;11.566;2022-07-23T01:11:31;5.0;;;4.5;;
26824;SDS011;14402;48.178;11.566;2022-07-23T01:12:00;5.0;;;4.5;;
26824;SDS011;14402;48.178;11.566;2022-07-23T01:12:31;5.0;;;4.5;;
26824;SDS011;14402;48.178;11.566;2022-07-23T01:13:01;4.9;;;4.4;;
26824;SDS011;14402;48.178;11.566;2022-07-23T01:13:31;4.8;;;4.4;;
26824;SDS011;14402;48.178;11.566;2022-07-23T01:14:07;4.8;;;4.4;;
26824;SDS011;14402;48.178;11.566;2022-07-23T01:14:31;4.8;;;4.4;;
26824;SDS011;14402;48.178;11.566;2022-07-23T01:15:01;5.1;;;4.6;;
26824;SDS011;14402;48.178;11.566;2022-07-23T01:15:31;5.3;;;4.8;;
26824;SDS011;14402;48.178;11.566;2022-07-23T01:16:01;5.3;;;4.8;;
26824;SDS011;14402;48.178;11.566;2022-07-23T01:16:31;5.3;;;4.8;;
26824;SDS011;14402;48.178;11.566;2022-07-23T01:17:01;5.2;;;4.7;;
26824;SDS011;14402;48.178;11.566;2022-07-23T01:17:32;5.0;;;4.6;;
26824;SDS011;14402;48.178;11.566;2022-07-23T01:18:02;5.0;;;4.6;;
26824;SDS011;14402;48.178;11.566;2022-07-23T01:18:31;5.0;;;4.6;;
26824;SDS011;14402;48.178;11.566;2022-07-23T01:19:02;5.8;;;5.3;;
26824;SDS011;14402;48.178;11.566;2022-07-23T01:19:32;6.7;;;6.0;;
26824;SDS011;14402;48.178;11.566;2022-07-23T01:20:02;6.7;;;6.0;;
26824;SDS011;14402;48.178;11.566;2022-07-23T01:20:32;6.7;;;6.0;;
26824;SDS011;14402;48.178;11.566;2022-07-23T01:21:02;7.1;;;6.0;;
26824;SDS011;14402;48.178;11.566;2022-07-23T01:21:33;7.6;;;6.0;;
26824;SDS011;14402;48.178;11.566;2022-07-23T01:22:02;7.6;;;6.0;;
26824;SDS011;14402;48.178;11.566;2022-07-23T01:22:32;7.6;;;6.0;;
26824;SDS011;14402;48.178;11.566;2022-07-23T01:23:02;7.1;;;5.9;;
26824;SDS011;14402;48.178;11.566;2022-07-23T01:23:32;6.5;;;5.9;;
26824;SDS011;14402;48.178;11.566;2022-07-23T01:24:02;6.5;;;5.9;;
26824;SDS011;14402;48.178;11.566;2022-07-23T01:24:32;6.5;;;5.9;;
26824;SDS011;14402;48.178;11.566;2022-07-23T01:25:02;6.8;;;6.0;;
26824;SDS011;14402;48.178;11.566;2022-07-23T01:25:32;7.1;;;6.1;;
26824;SDS011;14402;48.178;11.566;2022-07-23T01:26:02;7.1;;;6.1;;
26824;SDS011;14402;48.178;11.566;2022-07-23T01:26:32;7.1;;;6.1;;
26824;SDS011;14402;48.178;11.566;2022-07-23T01:27:02;8.1;;;6.1;;
26824;SDS011;14402;48.178;11.566;2022-07-23T01:27:33;9.2;;;6.1;;
26824;SDS011;14402;48.178;11.566;2022-07-23T01:28:03;9.2;;;6.1;;
26824;SDS011;14402;48.178;11.566;2022-07-23T01:28:33;9.2;;;6.1;;
26824;SDS011;14402;48.178;11.566;2022-07-23T01:29:03;7.9;;;6.1;;
26824;SDS011;14402;48.178;11.566;2022-07-23T01:29:33;6.7;;;6.0;;
26824;SDS011;14402;48.178;11.566;2022-07-23T01:30:03;6.7;;;6.0;;
26824;SDS011;14402;48.178;11.566;2022-07-23T01:30:33;6.7;;;6.0;;
26824;SDS011;14402;48.178;11.566;2022-07-23T01:31:03;9.5;;;5.8;;
26824;SDS011;14402;48.178;11.566;2022-07-23T01:31:33;12.4;;;5.6;;
26824;SDS011;14402;48.178;11.566;2022-07-23T01:32:03;12.4;;;5.6;;
26824;SDS011;14402;48.178;11.566;2022-07-23T01:32:33;12.4;;;5.6;;
26824;SDS011;14402;48.178;11.566;2022-07-23T01:33:03;10.7;;;5.6;;
26824;SDS011;14402;48.178;11.566;2022-07-23T01:33:33;9.0;;;5.6;;
26824;SDS011;14402;48.178;11.566;2022-07-23T01:34:03;9.0;;;5.6;;
26824;SDS011;14402;48.178;11.566;2022-07-23T01:34:33;9.0;;;5.6;;
26824;SDS011;14402;48.178;11.566;2022-07-23T01:35:04;11.8;;;5.3;;
26824;SDS011;14402;48.178;11.566;2022-07-23T01:35:33;14.6;;;5.0;;
26824;SDS011;14402;48.178;11.566;2022-07-23T01:36:04;14.6;;;5.0;;
26824;SDS011;14402;48.178;11.566;2022-07-23T01:36:34;14.6;;;5.0;;
26824;SDS011;14402;48.178;11.566;2022-07-23T01:37:04;18.7;;;5.4;;
26824;SDS011;14402;48.178;11.566;2022-07-23T01:37:34;22.8;;;5.9;;
26824;SDS011;14402;48.178;11.566;2022-07-23T01:38:04;22.8;;;5.9;;
26824;SDS011;14402;48.178;11.566;2022-07-23T01:38:34;22.8;;;5.9;;
26824;SDS011;14402;48.178;11.566;2022-07-23T01:39:04;17.1;;;5.5;;
26824;SDS011;14402;48.178;11.566;2022-07-23T01:39:34;11.5;;;5.1;;
26824;SDS011;14402;48.178;11.566;2022-07-23T01:40:05;11.5;;;5.1;;
26824;SDS011;14402;48.178;11.566;2022-07-23T01:40:34;11.5;;;5.1;;
26824;SDS011;14402;48.178;11.566;2022-07-23T01:41:04;11.6;;;4.9;;
26824;SDS011;14402;48.178;11.566;2022-07-23T01:41:34;11.7;;;4.7;;
26824;SDS011;14402;48.178;11.566;2022-07-23T01:42:04;11.7;;;4.7;;
26824;SDS011;14402;48.178;11.566;2022-07-23T01:42:34;11.7;;;4.7;;
26824;SDS011;14402;48.178;11.566;2022-07-23T01:43:04;9.1;;;4.6;;
26824;SDS011;14402;48.178;11.566;2022-07-23T01:43:34;6.6;;;4.4;;
26824;SDS011;14402;48.178;11.566;2022-07-23T01:44:05;6.6;;;4.4;;
26824;SDS011;14402;48.178;11.566;2022-07-23T01:44:35;6.6;;;4.4;;
26824;SDS011;14402;48.178;11.566;2022-07-23T01:45:05;7.4;;;4.2;;
26824;SDS011;14402;48.178;11.566;2022-07-23T01:45:35;8.3;;;3.9;;
26824;SDS011;14402;48.178;11.566;2022-07-23T01:46:05;8.3;;;3.9;;
26824;SDS011;14402;48.178;11.566;2022-07-23T01:46:35;8.3;;;3.9;;
26824;SDS011;14402;48.178;11.566;2022-07-23T01:47:05;6.9;;;3.8;;
26824;SDS011;14402;48.178;11.566;2022-07-23T01:47:35;5.6;;;3.6;;
26824;SDS011;14402;48.178;11.566;2022-07-23T01:48:05;5.6;;;3.6;;
26824;SDS011;14402;48.178;11.566;2022-07-23T01:48:35;5.6;;;3.6;;
26824;SDS011;14402;48.178;11.566;2022-07-23T01:49:05;5.8;;;3.8;;
26824;SDS011;14402;48.178;11.566;2022-07-23T01:49:35;6.0;;;4.0;;
26824;SDS011;14402;48.178;11.566;2022-07-23T01:50:05;6.0;;;4.0;;
26824;SDS011;14402;48.178;11.566;2022-07-23T01:50:35;6.0;;;4.0;;
26824;SDS011;14402;48.178;11.566;2022-07-23T01:51:05;6.2;;;4.0;;
26824;SDS011;14402;48.178;11.566;2022-07-23T01:51:35;6.5;;;3.9;;
26824;SDS011;14402;48.178;11.566;2022-07-23T01:52:05;6.5;;;3.9;;
26824;SDS011;14402;48.178;11.566;2022-07-23T01:52:36;6.5;;;3.9;;
26824;SDS011;14402;48.178;11.566;2022-07-23T01:53:06;8.8;;;4.2;;
26824;SDS011;14402;48.178;11.566;2022-07-23T01:53:36;11.0;;;4.5;;
26824;SDS011;14402;48.178;11.566;2022-07-23T01:54:06;11.0;;;4.5;;
26824;SDS011;14402;48.178;11.566;2022-07-23T01:54:36;11.0;;;4.5;;
26824;SDS011;14402;48.178;11.566;2022-07-23T01:55:06;11.0;;;4.5;;
26824;SDS011;14402;48.178;11.566;2022-07-23T01:55:36;10.1;;;4.4;;
26824;SDS011;14402;48.178;11.566;2022-07-23T01:56:06;9.1;;;4.4;;
26824;SDS011;14402;48.178;11.566;2022-07-23T01:56:36;9.1;;;4.4;;
26824;SDS011;14402;48.178;11.566;2022-07-23T01:57:06;9.1;;;4.4;;
26824;SDS011;14402;48.178;11.566;2022-07-23T01:57:36;8.8;;;4.2;;
26824;SDS011;14402;48.178;11.566;2022-07-23T01:58:06;8.4;;;4.1;;
26824;SDS011;14402;48.178;11.566;2022-07-23T01:58:36;8.4;;;4.1;;
26824;SDS011;14402;48.178;11.566;2022-07-23T01:59:06;8.4;;;4.1;;
26824;SDS011;14402;48.178;11.566;2022-07-23T01:59:36;7.3;;;4.1;;
26824;SDS011;14402;48.178;11.566;2022-07-23T02:00:07;6.2;;;4.0;;
26824;SDS011;14402;48.178;11.566;2022-07-23T02:00:36;6.2;;;4.0;;
26824;SDS011;14402;48.178;11.566;2022-07-23T02:01:06;6.2;;;4.0;;
26824;SDS011;14402;48.178;11.566;2022-07-23T02:01:36;6.3;;;4.0;;
26824;SDS011;14402;48.178;11.566;2022-07-23T02:02:07;6.4;;;3.9;;
26824;SDS011;14402;48.178;11.566;2022-07-23T02:02:37;6.4;;;3.9;;
26824;SDS011;14402;48.178;11.566;2022-07-23T02:03:07;6.4;;;3.9;;
26824;SDS011;14402;48.178;11.566;2022-07-23T02:03:37;5.9;;;3.9;;
26824;SDS011;14402;48.178;11.566;2022-07-23T02:04:07;5.4;;;3.9;;
26824;SDS011;14402;48.178;11.566;2022-07-23T02:04:37;5.4;;;3.9;;
26824;SDS011;14402;48.178;11.566;2022-07-23T02:05:07;5.4;;;3.9;;
26824;SDS011;14402;48.178;11.566;2022-07-23T02:05:37;6.1;;;4.0;;
26824;SDS011;14402;48.178;11.566;2022-07-23T02:06:07;6.8;;;4.0;;
26824;SDS011;14402;48.178;11.566;2022-07-23T02:06:37;6.8;;;4.0;;
26824;SDS011;14402;48.178;11.566;2022-07-23T02:07:07;6.8;;;4.0;;
26824;SDS011;14402;48.178;11.566;2022-07-23T02:07:37;6.6;;;4.1;;
26824;SDS011;14402;48.178;11.566;2022-07-23T02:08:07;6.3;;;4.2;;
26824;SDS011;14402;48.178;11.566;2022-07-23T02:08:37;6.3;;;4.2;;
26824;SDS011;14402;48.178;11.566;2022-07-23T02:09:07;6.3;;;4.2;;
26824;SDS011;14402;48.178;11.566;2022-07-23T02:09:37;5.6;;;4.2;;
26824;SDS011;14402;48.178;11.566;2022-07-23T02:10:08;4.9;;;4.3;;
26824;SDS011;14402;48.178;11.566;2022-07-23T02:10:37;4.9;;;4.3;;
26824;SDS011;14402;48.178;11.566;2022-07-23T02:11:07;4.9;;;4.3;;
26824;SDS011;14402;48.178;11.566;2022-07-23T02:11:38;7.1;;;4.2;;
26824;SDS011;14402;48.178;11.566;2022-07-23T02:12:08;9.4;;;4.2;;
26824;SDS011;14402;48.178;11.566;2022-07-23T02:12:38;9.4;;;4.2;;
26824;SDS011;14402;48.178;11.566;2022-07-23T02:13:08;9.4;;;4.2;;
26824;SDS011;14402;48.178;11.566;2022-07-23T02:13:38;7.6;;;4.1;;
26824;SDS011;14402;48.178;11.566;2022-07-23T02:14:08;5.8;;;4.0;;
26824;SDS011;14402;48.178;11.566;2022-07-23T02:14:38;5.8;;;4.0;;
26824;SDS011;14402;48.178;11.566;2022-07-23T02:15:08;5.8;;;4.0;;
26824;SDS011;14402;48.178;11.566;2022-07-23T02:15:38;5.9;;;4.1;;
26824;SDS011;14402;48.178;11.566;2022-07-23T02:16:08;6.0;;;4.1;;
26824;SDS011;14402;48.178;11.566;2022-07-23T02:16:38;6.0;;;4.1;;
26824;SDS011;14402;48.178;11.566;2022-07-23T02:17:09;6.0;;;4.1;;
26824;SDS011;14402;48.178;11.566;2022-07-23T02:17:38;5.3;;;4.1;;
26824;SDS011;14402;48.178;11.566;2022-07-23T02:18:08;4.7;;;4.1;;
26824;SDS011;14402;48.178;11.566;2022-07-23T02:18:38;4.7;;;4.1;;
26824;SDS011;14402;48.178;11.566;2022-07-23T02:19:08;4.7;;;4.1;;
26824;SDS011;14402;48.178;11.566;2022-07-23T02:19:38;4.8;;;3.9;;
26824;SDS011;14402;48.178;11.566;2022-07-23T02:20:09;4.9;;;3.8;;
26824;SDS011;14402;48.178;11.566;2022-07-23T02:20:38;4.9;;;3.8;;
26824;SDS011;14402;48.178;11.566;2022-07-23T02:21:09;4.9;;;3.8;;
26824;SDS011;14402;48.178;11.566;2022-07-23T02:21:39;5.1;;;3.9;;
26824;SDS011;14402;48.178;11.566;2022-07-23T02:22:09;5.3;;;4.1;;
26824;SDS011;14402;48.178;11.566;2022-07-23T02:22:39;5.3;;;4.1;;
26824;SDS011;14402;48.178;11.566;2022-07-23T02:23:09;5.3;;;4.1;;
26824;SDS011;14402;48.178;11.566;2022-07-23T02:23:39;5.6;;;4.1;;
26824;SDS011;14402;48.178;11.566;2022-07-23T02:24:09;5.8;;;4.1;;
26824;SDS011;14402;48.178;11.566;2022-07-23T02:24:39;5.8;;;4.1;;
26824;SDS011;14402;48.178;11.566;2022-07-23T02:25:09;5.8;;;4.1;;
26824;SDS011;14402;48.178;11.566;2022-07-23T02:25:39;5.9;;;4.2;;
26824;SDS011;14402;48.178;11.566;2022-07-23T02:26:09;6.1;;;4.3;;
26824;SDS011;14402;48.178;11.566;2022-07-23T02:26:39;6.1;;;4.3;;
26824;SDS011;14402;48.178;11.566;2022-07-23T02:27:09;6.1;;;4.3;;
26824;SDS011;14402;48.178;11.566;2022-07-23T02:27:39;5.8;;;4.3;;
26824;SDS011;14402;48.178;11.566;2022-07-23T02:28:09;5.6;;;4.3;;
26824;SDS011;14402;48.178;11.566;2022-07-23T02:28:39;5.6;;;4.3;;
26824;SDS011;14402;48.178;11.566;2022-07-23T02:29:09;5.6;;;4.3;;
26824;SDS011;14402;48.178;11.566;2022-07-23T02:29:40;5.6;;;4.2;;
26824;SDS011;14402;48.178;11.566;2022-07-23T02:30:10;5.7;;;4.0;;
26824;SDS011;14402;48.178;11.566;2022-07-23T02:30:40;5.7;;;4.0;;
26824;SDS011;14402;48.178;11.566;2022-07-23T02:31:10;5.7;;;4.0;;
26824;SDS011;14402;48.178;11.566;2022-07-23T02:31:40;6.2;;;4.0;;
26824;SDS011;14402;48.178;11.566;2022-07-23T02:32:10;6.8;;;3.9;;
26824;SDS011;14402;48.178;11.566;2022-07-23T02:32:40;6.8;;;3.9;;
26824;SDS011;14402;48.178;11.566;2022-07-23T02:33:10;6.8;;;3.9;;
26824;SDS011;14402;48.178;11.566;2022-07-23T02:33:40;5.9;;;3.7;;
26824;SDS011;14402;48.178;11.566;2022-07-23T02:34:10;5.1;;;3.5;;
26824;SDS011;14402;48.178;11.566;2022-07-23T02:34:40;5.1;;;3.5;;
26824;SDS011;14402;48.178;11.566;2022-07-23T02:35:10;5.1;;;3.5;;
26824;SDS011;14402;48.178;11.566;2022-07-23T02:35:40;5.8;;;3.5;;
26824;SDS011;14402;48.178;11.566;2022-07-23T02:36:10;6.4;;;3.4;;
26824;SDS011;14402;48.178;11.566;2022-07-23T02:36:40;6.4;;;3.4;;
26824;SDS011;14402;48.178;11.566;2022-07-23T02:37:10;6.4;;;3.4;;
26824;SDS011;14402;48.178;11.566;2022-07-23T02:37:40;5.8;;;3.3;;
26824;SDS011;14402;48.178;11.566;2022-07-23T02:38:10;5.1;;;3.3;;
26824;SDS011;14402;48.178;11.566;2022-07-23T02:38:40;5.1;;;3.3;;
26824;SDS011;14402;48.178;11.566;2022-07-23T02:39:10;5.1;;;3.3;;
26824;SDS011;14402;48.178;11.566;2022-07-23T02:39:40;5.4;;;3.3;;
26824;SDS011;14402;48.178;11.566;2022-07-23T02:40:10;5.8;;;3.4;;
26824;SDS011;14402;48.178;11.566;2022-07-23T02:40:40;5.8;;;3.4;;
26824;SDS011;14402;48.178;11.566;2022-07-23T02:41:11;5.8;;;3.4;;
26824;SDS011;14402;48.178;11.566;2022-07-23T02:41:41;4.8;;;3.3;;
26824;SDS011;14402;48.178;11.566;2022-07-23T02:42:11;3.8;;;3.2;;
26824;SDS011;14402;48.178;11.566;2022-07-23T02:42:41;3.8;;;3.2;;
26824;SDS011;14402;48.178;11.566;2022-07-23T02:43:11;3.8;;;3.2;;
26824;SDS011;14402;48.178;11.566;2022-07-23T02:43:41;4.8;;;3.2;;
26824;SDS011;14402;48.178;11.566;2022-07-23T02:44:11;5.9;;;3.3;;
26824;SDS011;14402;48.178;11.566;2022-07-23T02:44:41;5.9;;;3.3;;
26824;SDS011;14402;48.178;11.566;2022-07-23T02:45:11;5.9;;;3.3;;
26824;SDS011;14402;48.178;11.566;2022-07-23T02:45:41;5.2;;;3.2;;
26824;SDS011;14402;48.178;11.566;2022-07-23T02:46:11;4.4;;;3.0;;
26824;SDS011;14402;48.178;11.566;2022-07-23T02:46:41;4.4;;;3.0;;
26824;SDS011;14402;48.178;11.566;2022-07-23T02:47:11;4.4;;;3.0;;
26824;SDS011;14402;48.178;11.566;2022-07-23T02:47:41;4.2;;;2.8;;
26824;SDS011;14402;48.178;11.566;2022-07-23T02:48:11;3.9;;;2.7;;
26824;SDS011;14402;48.178;11.566;2022-07-23T02:48:41;3.9;;;2.7;;
26824;SDS011;14402;48.178;11.566;2022-07-23T02:49:11;3.9;;;2.7;;
26824;SDS011;14402;48.178;11.566;2022-07-23T02:49:41;4.0;;;2.7;;
26824;SDS011;14402;48.178;11.566;2022-07-23T02:50:12;4.1;;;2.6;;
26824;SDS011;14402;48.178;11.566;2022-07-23T02:50:42;4.1;;;2.6;;
26824;SDS011;14402;48.178;11.566;2022-07-23T02:51:12;4.1;;;2.6;;
26824;SDS011;14402;48.178;11.566;2022-07-23T02:51:42;3.9;;;2.7;;
26824;SDS011;14402;48.178;11.566;2022-07-23T02:52:12;3.8;;;2.7;;
26824;SDS011;14402;48.178;11.566;2022-07-23T02:52:42;3.8;;;2.7;;
26824;SDS011;14402;48.178;11.566;2022-07-23T02:53:12;3.8;;;2.7;;
26824;SDS011;14402;48.178;11.566;2022-07-23T02:53:42;3.8;;;2.7;;
26824;SDS011;14402;48.178;11.566;2022-07-23T02:54:12;3.8;;;2.6;;
26824;SDS011;14402;48.178;11.566;2022-07-23T02:54:42;3.8;;;2.6;;
26824;SDS011;14402;48.178;11.566;2022-07-23T02:55:12;3.8;;;2.6;;
26824;SDS011;14402;48.178;11.566;2022-07-23T02:55:42;3.8;;;2.7;;
26824;SDS011;14402;48.178;11.566;2022-07-23T02:56:12;3.9;;;2.7;;
26824;SDS011;14402;48.178;11.566;2022-07-23T02:56:42;3.9;;;2.7;;
26824;SDS011;14402;48.178;11.566;2022-07-23T02:57:12;3.9;;;2.7;;
26824;SDS011;14402;48.178;11.566;2022-07-23T02:57:42;3.9;;;2.8;;
26824;SDS011;14402;48.178;11.566;2022-07-23T02:58:12;3.9;;;2.8;;
26824;SDS011;14402;48.178;11.566;2022-07-23T02:58:42;3.9;;;2.8;;
26824;SDS011;14402;48.178;11.566;2022-07-23T02:59:13;3.9;;;2.8;;
26824;SDS011;14402;48.178;11.566;2022-07-23T02:59:42;3.5;;;2.7;;
26824;SDS011;14402;48.178;11.566;2022-07-23T03:00:13;3.1;;;2.6;;
26824;SDS011;14402;48.178;11.566;2022-07-23T03:00:43;3.1;;;2.6;;
26824;SDS011;14402;48.178;11.566;2022-07-23T03:01:13;3.1;;;2.6;;
26824;SDS011;14402;48.178;11.566;2022-07-23T03:01:43;3.2;;;2.7;;
26824;SDS011;14402;48.178;11.566;2022-07-23T03:02:13;3.2;;;2.8;;
26824;SDS011;14402;48.178;11.566;2022-07-23T03:02:43;3.2;;;2.8;;
26824;SDS011;14402;48.178;11.566;2022-07-23T03:03:13;3.2;;;2.8;;
26824;SDS011;14402;48.178;11.566;2022-07-23T03:03:43;3.6;;;2.8;;